sensor_id;sensor_type;location;lat;lon;timestamp;pressure;altitude;pressure_sealevel;temperature;humidity
21431;BME280;10876;49.038;10.608;2023-05-21T00:00:05;98593.31;;;17.13;100.00
21431;BME280;10876;49.038;10.608;2023-05-21T00:02:36;98594.75;;;17.06;100.00
21431;BME280;10876;49.038;10.608;2023-05-21T00:05:04;98597.41;;;17.19;100.00
21431;BME280;10876;49.038;10.608;2023-05-21T00:07:32;98596.63;;;17.18;100.00
21431;BME280;10876;49.038;10.608;2023-05-21T00:09:59;98595.91;;;17.21;100.00
21431;BME280;10876;49.038;10.608;2023-05-21T00:12:26;98588.13;;;17.27;100.00
21431;BME280;10876;49.038;10.608;2023-05-21T00:14:53;98585.09;;;17.32;100.00
21431;BME280;10876;49.038;10.608;2023-05-21T00:17:20;98587.88;;;17.32;100.00
21431;BME280;10876;49.038;10.608;2023-05-21T00:19:47;98582.44;;;17.20;100.00
21431;BME280;10876;49.038;10.608;2023-05-21T00:22:15;98586.25;;;17.15;100.00
21431;BME280;10876;49.038;10.608;2023-05-21T00:24:43;98590.47;;;17.09;100.00
21431;BME280;10876;49.038;10.608;2023-05-21T00:27:10;98593.16;;;17.05;100.00
21431;BME280;10876;49.038;10.608;2023-05-21T00:29:37;98586.97;;;17.28;100.00
21431;BME280;10876;49.038;10.608;2023-05-21T00:32:05;98590.09;;;17.10;100.00
21431;BME280;10876;49.038;10.608;2023-05-21T00:34:32;98586.19;;;17.11;100.00
21431;BME280;10876;49.038;10.608;2023-05-21T00:36:59;98579.81;;;17.27;100.00
21431;BME280;10876;49.038;10.608;2023-05-21T00:39:27;98576.63;;;17.09;100.00
21431;BME280;10876;49.038;10.608;2023-05-21T00:41:55;98578.41;;;17.01;100.00
21431;BME280;10876;49.038;10.608;2023-05-21T00:44:22;98578.66;;;16.96;100.00
21431;BME280;10876;49.038;10.608;2023-05-21T00:46:50;98574.16;;;16.76;100.00
21431;BME280;10876;49.038;10.608;2023-05-21T00:49:19;98578.69;;;16.68;100.00
21431;BME280;10876;49.038;10.608;2023-05-21T00:51:49;98574.72;;;16.65;100.00
21431;BME280;10876;49.038;10.608;2023-05-21T00:54:16;98575.38;;;16.62;100.00
21431;BME280;10876;49.038;10.608;2023-05-21T00:56:44;98578.44;;;16.57;100.00
21431;BME280;10876;49.038;10.608;2023-05-21T00:59:15;98573.06;;;16.49;100.00
21431;BME280;10876;49.038;10.608;2023-05-21T01:01:42;98577.94;;;16.39;100.00
21431;BME280;10876;49.038;10.608;2023-05-21T01:04:10;98574.91;;;16.29;100.00
21431;BME280;10876;49.038;10.608;2023-05-21T01:06:37;98564.88;;;16.24;100.00
21431;BME280;10876;49.038;10.608;2023-05-21T01:09:04;98573.78;;;16.17;100.00
21431;BME280;10876;49.038;10.608;2023-05-21T01:11:38;98563.88;;;16.16;100.00
21431;BME280;10876;49.038;10.608;2023-05-21T01:14:06;98565.75;;;16.12;100.00
21431;BME280;10876;49.038;10.608;2023-05-21T01:16:36;98564.47;;;16.10;100.00
21431;BME280;10876;49.038;10.608;2023-05-21T01:19:06;98547.34;;;16.04;100.00
21431;BME280;10876;49.038;10.608;2023-05-21T01:21:36;98558.88;;;16.06;100.00
21431;BME280;10876;49.038;10.608;2023-05-21T01:24:08;98557.94;;;16.02;100.00
21431;BME280;10876;49.038;10.608;2023-05-21T01:26:35;98552.69;;;15.97;100.00
21431;BME280;10876;49.038;10.608;2023-05-21T01:29:03;98568.81;;;15.95;100.00
21431;BME280;10876;49.038;10.608;2023-05-21T01:31:36;98556.72;;;15.87;100.00
21431;BME280;10876;49.038;10.608;2023-05-21T01:34:10;98569.78;;;15.74;100.00
21431;BME280;10876;49.038;10.608;2023-05-21T01:36:42;98570.34;;;15.80;100.00
21431;BME280;10876;49.038;10.608;2023-05-21T01:39:16;98563.75;;;15.85;100.00
21431;BME280;10876;49.038;10.608;2023-05-21T01:41:46;98554.44;;;15.89;100.00
21431;BME280;10876;49.038;10.608;2023-05-21T01:44:17;98554.34;;;15.86;100.00
21431;BME280;10876;49.038;10.608;2023-05-21T01:46:44;98554.06;;;15.91;100.00
21431;BME280;10876;49.038;10.608;2023-05-21T01:49:12;98554.44;;;15.89;100.00
21431;BME280;10876;49.038;10.608;2023-05-21T01:51:40;98548.91;;;15.89;100.00
21431;BME280;10876;49.038;10.608;2023-05-21T01:54:07;98555.03;;;15.83;100.00
21431;BME280;10876;49.038;10.608;2023-05-21T01:56:35;98552.38;;;15.86;100.00
21431;BME280;10876;49.038;10.608;2023-05-21T01:59:02;98558.72;;;15.74;100.00
21431;BME280;10876;49.038;10.608;2023-05-21T02:01:29;98554.63;;;15.44;100.00
21431;BME280;10876;49.038;10.608;2023-05-21T02:03:57;98550.00;;;15.60;100.00
21431;BME280;10876;49.038;10.608;2023-05-21T02:06:24;98555.94;;;15.62;100.00
21431;BME280;10876;49.038;10.608;2023-05-21T02:08:51;98549.06;;;15.56;100.00
21431;BME280;10876;49.038;10.608;2023-05-21T02:11:18;98550.34;;;15.59;100.00
21431;BME280;10876;49.038;10.608;2023-05-21T02:13:46;98555.84;;;15.59;100.00
21431;BME280;10876;49.038;10.608;2023-05-21T02:16:14;98551.13;;;15.59;100.00
21431;BME280;10876;49.038;10.608;2023-05-21T02:18:41;98545.50;;;15.55;100.00
21431;BME280;10876;49.038;10.608;2023-05-21T02:21:09;98543.47;;;15.40;100.00
21431;BME280;10876;49.038;10.608;2023-05-21T02:23:36;98546.13;;;15.37;100.00
21431;BME280;10876;49.038;10.608;2023-05-21T02:26:04;98548.28;;;15.43;100.00
21431;BME280;10876;49.038;10.608;2023-05-21T02:28:31;98541.63;;;15.44;100.00
21431;BME280;10876;49.038;10.608;2023-05-21T02:30:59;98544.28;;;15.41;100.00
21431;BME280;10876;49.038;10.608;2023-05-21T02:33:26;98544.47;;;15.48;100.00
21431;BME280;10876;49.038;10.608;2023-05-21T02:35:53;98546.09;;;15.49;100.00
21431;BME280;10876;49.038;10.608;2023-05-21T02:38:20;98544.47;;;15.48;100.00
21431;BME280;10876;49.038;10.608;2023-05-21T02:40:48;98541.28;;;15.46;100.00
21431;BME280;10876;49.038;10.608;2023-05-21T02:43:16;98537.09;;;15.64;100.00
21431;BME280;10876;49.038;10.608;2023-05-21T02:45:43;98536.19;;;15.60;100.00
21431;BME280;10876;49.038;10.608;2023-05-21T02:48:11;98542.59;;;15.64;100.00
21431;BME280;10876;49.038;10.608;2023-05-21T02:50:38;98541.00;;;15.63;100.00
21431;BME280;10876;49.038;10.608;2023-05-21T02:53:05;98545.16;;;15.69;100.00
21431;BME280;10876;49.038;10.608;2023-05-21T02:55:32;98546.75;;;15.70;100.00
21431;BME280;10876;49.038;10.608;2023-05-21T02:57:59;98552.75;;;15.60;100.00
21431;BME280;10876;49.038;10.608;2023-05-21T03:00:26;98550.34;;;15.59;100.00
21431;BME280;10876;49.038;10.608;2023-05-21T03:02:53;98546.31;;;15.56;100.00
21431;BME280;10876;49.038;10.608;2023-05-21T03:05:21;98547.09;;;15.57;100.00
21431;BME280;10876;49.038;10.608;2023-05-21T03:07:49;98544.94;;;15.50;100.00
21431;BME280;10876;49.038;10.608;2023-05-21T03:10:16;98540.00;;;15.43;100.00
21431;BME280;10876;49.038;10.608;2023-05-21T03:12:43;98544.72;;;15.30;100.00
21431;BME280;10876;49.038;10.608;2023-05-21T03:15:10;98526.69;;;15.33;100.00
21431;BME280;10876;49.038;10.608;2023-05-21T03:17:39;98536.22;;;15.36;100.00
21431;BME280;10876;49.038;10.608;2023-05-21T03:20:09;98525.66;;;15.38;100.00
21431;BME280;10876;49.038;10.608;2023-05-21T03:22:43;98523.69;;;15.38;100.00
21431;BME280;10876;49.038;10.608;2023-05-21T03:25:11;98526.81;;;15.37;100.00
21431;BME280;10876;49.038;10.608;2023-05-21T03:27:38;98523.59;;;15.35;100.00
21431;BME280;10876;49.038;10.608;2023-05-21T03:30:06;98527.47;;;15.33;100.00
21431;BME280;10876;49.038;10.608;2023-05-21T03:32:33;98524.97;;;15.28;100.00
21431;BME280;10876;49.038;10.608;2023-05-21T03:35:02;98527.59;;;15.37;100.00
21431;BME280;10876;49.038;10.608;2023-05-21T03:37:29;98529.44;;;15.33;100.00
21431;BME280;10876;49.038;10.608;2023-05-21T03:39:58;98531.88;;;15.22;100.00
21431;BME280;10876;49.038;10.608;2023-05-21T03:42:25;98527.72;;;15.16;100.00
21431;BME280;10876;49.038;10.608;2023-05-21T03:44:52;98538.75;;;15.16;100.00
21431;BME280;10876;49.038;10.608;2023-05-21T03:47:18;98535.91;;;15.13;100.00
21431;BME280;10876;49.038;10.608;2023-05-21T03:49:45;98537.75;;;15.08;100.00
21431;BME280;10876;49.038;10.608;2023-05-21T03:52:12;98531.53;;;14.99;100.00
21431;BME280;10876;49.038;10.608;2023-05-21T03:54:39;98530.28;;;14.97;100.00
21431;BME280;10876;49.038;10.608;2023-05-21T03:57:08;98535.09;;;15.00;100.00
21431;BME280;10876;49.038;10.608;2023-05-21T03:59:35;98534.41;;;15.03;100.00
21431;BME280;10876;49.038;10.608;2023-05-21T04:02:02;98533.72;;;15.06;100.00
21431;BME280;10876;49.038;10.608;2023-05-21T04:04:29;98531.44;;;15.08;100.00
21431;BME280;10876;49.038;10.608;2023-05-21T04:06:58;98525.22;;;15.11;100.00
21431;BME280;10876;49.038;10.608;2023-05-21T04:09:25;98527.97;;;14.99;100.00
21431;BME280;10876;49.038;10.608;2023-05-21T04:11:53;98526.94;;;15.03;100.00
21431;BME280;10876;49.038;10.608;2023-05-21T04:14:21;98526.03;;;15.12;100.00
21431;BME280;10876;49.038;10.608;2023-05-21T04:16:48;98538.06;;;15.19;100.00
21431;BME280;10876;49.038;10.608;2023-05-21T04:19:15;98538.06;;;15.19;100.00
21431;BME280;10876;49.038;10.608;2023-05-21T04:21:42;98540.38;;;15.17;100.00
21431;BME280;10876;49.038;10.608;2023-05-21T04:24:10;98530.03;;;15.14;100.00
21431;BME280;10876;49.038;10.608;2023-05-21T04:26:37;98527.97;;;15.11;100.00
21431;BME280;10876;49.038;10.608;2023-05-21T04:29:06;98531.75;;;15.06;100.00
21431;BME280;10876;49.038;10.608;2023-05-21T04:31:35;98539.03;;;15.11;100.00
21431;BME280;10876;49.038;10.608;2023-05-21T04:34:03;98532.09;;;15.05;100.00
21431;BME280;10876;49.038;10.608;2023-05-21T04:36:30;98530.50;;;15.04;100.00
21431;BME280;10876;49.038;10.608;2023-05-21T04:38:58;98526.13;;;15.03;100.00
21431;BME280;10876;49.038;10.608;2023-05-21T04:41:25;98524.28;;;15.07;100.00
21431;BME280;10876;49.038;10.608;2023-05-21T04:43:52;98533.00;;;14.84;100.00
21431;BME280;10876;49.038;10.608;2023-05-21T04:46:19;98525.22;;;14.86;100.00
21431;BME280;10876;49.038;10.608;2023-05-21T04:48:52;98531.66;;;15.15;100.00
21431;BME280;10876;49.038;10.608;2023-05-21T04:51:19;98530.16;;;15.18;100.00
21431;BME280;10876;49.038;10.608;2023-05-21T04:53:49;98550.03;;;14.99;100.00
21431;BME280;10876;49.038;10.608;2023-05-21T04:56:17;98553.50;;;15.08;100.00
21431;BME280;10876;49.038;10.608;2023-05-21T04:58:44;98548.78;;;15.21;100.00
21431;BME280;10876;49.038;10.608;2023-05-21T05:01:13;98547.97;;;15.20;100.00
21431;BME280;10876;49.038;10.608;2023-05-21T05:03:40;98552.44;;;15.37;100.00
21431;BME280;10876;49.038;10.608;2023-05-21T05:06:09;98557.72;;;15.42;100.00
21431;BME280;10876;49.038;10.608;2023-05-21T05:08:36;98556.56;;;15.55;100.00
21431;BME280;10876;49.038;10.608;2023-05-21T05:11:03;98551.13;;;15.59;100.00
21431;BME280;10876;49.038;10.608;2023-05-21T05:13:30;98545.25;;;15.73;100.00
21431;BME280;10876;49.038;10.608;2023-05-21T05:15:57;98549.28;;;15.75;100.00
21431;BME280;10876;49.038;10.608;2023-05-21T05:18:25;98555.13;;;15.86;100.00
21431;BME280;10876;49.038;10.608;2023-05-21T05:20:52;98545.78;;;15.91;100.00
21431;BME280;10876;49.038;10.608;2023-05-21T05:23:20;98543.47;;;15.93;100.00
21431;BME280;10876;49.038;10.608;2023-05-21T05:25:47;98545.28;;;16.01;100.00
21431;BME280;10876;49.038;10.608;2023-05-21T05:28:14;98542.63;;;16.05;100.00
21431;BME280;10876;49.038;10.608;2023-05-21T05:30:41;98547.00;;;16.06;100.00
21431;BME280;10876;49.038;10.608;2023-05-21T05:33:08;98541.34;;;16.14;100.00
21431;BME280;10876;49.038;10.608;2023-05-21T05:35:35;98549.63;;;16.14;100.00
21431;BME280;10876;49.038;10.608;2023-05-21T05:38:02;98548.38;;;16.28;100.00
21431;BME280;10876;49.038;10.608;2023-05-21T05:40:31;98548.06;;;16.29;100.00
21431;BME280;10876;49.038;10.608;2023-05-21T05:42:58;98550.91;;;16.33;100.00
21431;BME280;10876;49.038;10.608;2023-05-21T05:45:25;98543.06;;;16.35;100.00
21431;BME280;10876;49.038;10.608;2023-05-21T05:47:52;98544.34;;;16.53;100.00
21431;BME280;10876;49.038;10.608;2023-05-21T05:50:19;98548.28;;;16.52;100.00
21431;BME280;10876;49.038;10.608;2023-05-21T05:52:46;98552.75;;;16.57;100.00
21431;BME280;10876;49.038;10.608;2023-05-21T05:55:14;98559.50;;;16.59;100.00
21431;BME280;10876;49.038;10.608;2023-05-21T05:57:42;98560.44;;;16.63;100.00
21431;BME280;10876;49.038;10.608;2023-05-21T06:00:11;98561.00;;;16.85;100.00
21431;BME280;10876;49.038;10.608;2023-05-21T06:02:38;98564.94;;;16.84;100.00
21431;BME280;10876;49.038;10.608;2023-05-21T06:05:06;98567.25;;;16.82;100.00
21431;BME280;10876;49.038;10.608;2023-05-21T06:07:36;98565.09;;;16.91;100.00
21431;BME280;10876;49.038;10.608;2023-05-21T06:10:04;98563.31;;;16.99;100.00
21431;BME280;10876;49.038;10.608;2023-05-21T06:12:31;98563.31;;;17.15;100.00
21431;BME280;10876;49.038;10.608;2023-05-21T06:15:00;98565.91;;;17.23;100.00
21431;BME280;10876;49.038;10.608;2023-05-21T06:17:27;98562.16;;;17.31;100.00
21431;BME280;10876;49.038;10.608;2023-05-21T06:19:55;98571.25;;;17.32;100.00
21431;BME280;10876;49.038;10.608;2023-05-21T06:22:22;98566.59;;;17.36;100.00
21431;BME280;10876;49.038;10.608;2023-05-21T06:24:49;98569.75;;;17.54;100.00
21431;BME280;10876;49.038;10.608;2023-05-21T06:27:16;98568.56;;;17.71;100.00
21431;BME280;10876;49.038;10.608;2023-05-21T06:29:43;98577.31;;;17.73;100.00
21431;BME280;10876;49.038;10.608;2023-05-21T06:32:11;98573.13;;;17.79;100.00
21431;BME280;10876;49.038;10.608;2023-05-21T06:34:38;98571.25;;;17.83;100.00
21431;BME280;10876;49.038;10.608;2023-05-21T06:37:05;98575.41;;;17.93;100.00
21431;BME280;10876;49.038;10.608;2023-05-21T06:39:32;98589.19;;;17.89;100.00
21431;BME280;10876;49.038;10.608;2023-05-21T06:41:59;98591.38;;;17.99;100.00
21431;BME280;10876;49.038;10.608;2023-05-21T06:44:26;98592.72;;;18.06;100.00
21431;BME280;10876;49.038;10.608;2023-05-21T06:46:53;98595.31;;;17.98;100.00
21431;BME280;10876;49.038;10.608;2023-05-21T06:49:21;98590.13;;;17.97;100.00
21431;BME280;10876;49.038;10.608;2023-05-21T06:51:48;98586.13;;;18.14;100.00
21431;BME280;10876;49.038;10.608;2023-05-21T06:54:15;98587.31;;;18.32;100.00
21431;BME280;10876;49.038;10.608;2023-05-21T06:56:42;98586.56;;;18.35;100.00
21431;BME280;10876;49.038;10.608;2023-05-21T06:59:09;98592.13;;;18.35;100.00
21431;BME280;10876;49.038;10.608;2023-05-21T07:01:36;98591.44;;;18.42;100.00
21431;BME280;10876;49.038;10.608;2023-05-21T07:04:06;98591.72;;;18.56;100.00
21431;BME280;10876;49.038;10.608;2023-05-21T07:06:35;98595.38;;;18.60;100.00
21431;BME280;10876;49.038;10.608;2023-05-21T07:09:02;98607.28;;;18.80;100.00
21431;BME280;10876;49.038;10.608;2023-05-21T07:11:30;98596.69;;;18.86;100.00
21431;BME280;10876;49.038;10.608;2023-05-21T07:13:58;98600.84;;;18.76;100.00
21431;BME280;10876;49.038;10.608;2023-05-21T07:16:26;98599.94;;;18.92;100.00
21431;BME280;10876;49.038;10.608;2023-05-21T07:18:53;98599.38;;;19.05;100.00
21431;BME280;10876;49.038;10.608;2023-05-21T07:21:20;98597.47;;;18.86;100.00
21431;BME280;10876;49.038;10.608;2023-05-21T07:23:48;98592.13;;;18.97;100.00
21431;BME280;10876;49.038;10.608;2023-05-21T07:26:15;98601.56;;;18.93;100.00
21431;BME280;10876;49.038;10.608;2023-05-21T07:28:42;98603.31;;;18.81;100.00
21431;BME280;10876;49.038;10.608;2023-05-21T07:31:09;98615.44;;;18.73;100.00
21431;BME280;10876;49.038;10.608;2023-05-21T07:33:37;98619.13;;;18.77;100.00
21431;BME280;10876;49.038;10.608;2023-05-21T07:36:04;98613.41;;;18.70;100.00
21431;BME280;10876;49.038;10.608;2023-05-21T07:38:31;98606.09;;;18.81;100.00
21431;BME280;10876;49.038;10.608;2023-05-21T07:41:00;98614.25;;;18.94;100.00
21431;BME280;10876;49.038;10.608;2023-05-21T07:43:27;98613.84;;;18.92;100.00
21431;BME280;10876;49.038;10.608;2023-05-21T07:45:54;98611.63;;;19.01;100.00
21431;BME280;10876;49.038;10.608;2023-05-21T07:48:21;98616.41;;;19.04;100.00
21431;BME280;10876;49.038;10.608;2023-05-21T07:50:48;98615.38;;;18.89;100.00
21431;BME280;10876;49.038;10.608;2023-05-21T07:53:17;98620.09;;;18.88;100.00
21431;BME280;10876;49.038;10.608;2023-05-21T07:55:46;98611.84;;;19.15;100.00
21431;BME280;10876;49.038;10.608;2023-05-21T07:58:15;98616.41;;;19.04;100.00
21431;BME280;10876;49.038;10.608;2023-05-21T08:00:44;98615.69;;;19.07;100.00
21431;BME280;10876;49.038;10.608;2023-05-21T08:03:13;98615.47;;;19.19;100.00
21431;BME280;10876;49.038;10.608;2023-05-21T08:05:41;98617.75;;;19.36;100.00
21431;BME280;10876;49.038;10.608;2023-05-21T08:08:12;98606.16;;;19.31;100.00
21431;BME280;10876;49.038;10.608;2023-05-21T08:10:39;98616.72;;;19.22;100.00
21431;BME280;10876;49.038;10.608;2023-05-21T08:13:06;98610.66;;;19.39;100.00
21431;BME280;10876;49.038;10.608;2023-05-21T08:15:35;98606.78;;;19.44;100.00
21431;BME280;10876;49.038;10.608;2023-05-21T08:18:02;98600.94;;;19.52;100.00
21431;BME280;10876;49.038;10.608;2023-05-21T08:20:30;98603.19;;;19.43;100.00
21431;BME280;10876;49.038;10.608;2023-05-21T08:22:58;98605.38;;;19.57;100.00
21431;BME280;10876;49.038;10.608;2023-05-21T08:25:25;98604.78;;;19.67;100.00
21431;BME280;10876;49.038;10.608;2023-05-21T08:27:52;98601.56;;;19.65;100.00
21431;BME280;10876;49.038;10.608;2023-05-21T08:30:20;98607.31;;;19.79;100.00
21431;BME280;10876;49.038;10.608;2023-05-21T08:32:48;98599.25;;;19.97;100.00
21431;BME280;10876;49.038;10.608;2023-05-21T08:35:15;98594.16;;;20.03;100.00
21431;BME280;10876;49.038;10.608;2023-05-21T08:37:42;98578.56;;;19.95;100.00
21431;BME280;10876;49.038;10.608;2023-05-21T08:40:10;98588.03;;;20.20;100.00
21431;BME280;10876;49.038;10.608;2023-05-21T08:42:41;98576.88;;;20.54;100.00
21431;BME280;10876;49.038;10.608;2023-05-21T08:45:10;98558.69;;;20.60;100.00
21431;BME280;10876;49.038;10.608;2023-05-21T08:47:40;98545.34;;;20.43;100.00
21431;BME280;10876;49.038;10.608;2023-05-21T08:50:10;98544.94;;;20.78;100.00
21431;BME280;10876;49.038;10.608;2023-05-21T08:52:37;98535.41;;;20.83;100.00
21431;BME280;10876;49.038;10.608;2023-05-21T08:55:05;98524.59;;;21.22;100.00
21431;BME280;10876;49.038;10.608;2023-05-21T08:57:33;98525.25;;;21.05;100.00
21431;BME280;10876;49.038;10.608;2023-05-21T09:00:00;98513.47;;;21.26;100.00
21431;BME280;10876;49.038;10.608;2023-05-21T09:02:33;98515.59;;;21.43;100.00
21431;BME280;10876;49.038;10.608;2023-05-21T09:05:03;98505.72;;;21.53;100.00
21431;BME280;10876;49.038;10.608;2023-05-21T09:07:38;98507.41;;;21.72;100.00
21431;BME280;10876;49.038;10.608;2023-05-21T09:10:06;98493.84;;;21.67;100.00
21431;BME280;10876;49.038;10.608;2023-05-21T09:12:34;98489.25;;;22.14;100.00
21431;BME280;10876;49.038;10.608;2023-05-21T09:15:02;98470.16;;;22.23;100.00
21431;BME280;10876;49.038;10.608;2023-05-21T09:17:29;98480.59;;;22.80;100.00
21431;BME280;10876;49.038;10.608;2023-05-21T09:20:07;98478.63;;;23.02;100.00
21431;BME280;10876;49.038;10.608;2023-05-21T09:22:43;98457.47;;;22.72;100.00
21431;BME280;10876;49.038;10.608;2023-05-21T09:25:11;98452.25;;;23.24;100.00
21431;BME280;10876;49.038;10.608;2023-05-21T09:27:38;98448.97;;;23.51;100.00
21431;BME280;10876;49.038;10.608;2023-05-21T09:30:09;98452.56;;;23.55;100.00
21431;BME280;10876;49.038;10.608;2023-05-21T09:32:36;98437.41;;;23.49;100.00
21431;BME280;10876;49.038;10.608;2023-05-21T09:35:08;98423.84;;;23.44;100.00
21431;BME280;10876;49.038;10.608;2023-05-21T09:37:39;98426.16;;;23.63;100.00
21431;BME280;10876;49.038;10.608;2023-05-21T09:40:16;98421.44;;;23.46;100.00
21431;BME280;10876;49.038;10.608;2023-05-21T09:42:45;98418.31;;;23.29;100.00
21431;BME280;10876;49.038;10.608;2023-05-21T09:45:17;98425.16;;;22.96;100.00
21431;BME280;10876;49.038;10.608;2023-05-21T09:47:45;98413.56;;;23.05;100.00
21431;BME280;10876;49.038;10.608;2023-05-21T09:50:15;98421.47;;;23.31;100.00
21431;BME280;10876;49.038;10.608;2023-05-21T09:52:43;98411.16;;;23.10;100.00
21431;BME280;10876;49.038;10.608;2023-05-21T09:55:12;98409.59;;;22.84;100.00
21431;BME280;10876;49.038;10.608;2023-05-21T09:57:41;98420.75;;;23.13;100.00
21431;BME280;10876;49.038;10.608;2023-05-21T10:00:16;98436.72;;;22.80;100.00
21431;BME280;10876;49.038;10.608;2023-05-21T10:02:44;98450.66;;;22.80;100.00
21431;BME280;10876;49.038;10.608;2023-05-21T10:05:13;98445.50;;;22.54;100.00
21431;BME280;10876;49.038;10.608;2023-05-21T10:07:41;98455.03;;;22.24;100.00
21431;BME280;10876;49.038;10.608;2023-05-21T10:10:12;98452.66;;;22.33;100.00
21431;BME280;10876;49.038;10.608;2023-05-21T10:12:43;98471.41;;;22.51;100.00
21431;BME280;10876;49.038;10.608;2023-05-21T10:15:13;98449.47;;;22.70;100.00
21431;BME280;10876;49.038;10.608;2023-05-21T10:17:41;98458.25;;;22.47;100.00
21431;BME280;10876;49.038;10.608;2023-05-21T10:20:12;98456.69;;;22.61;100.00
21431;BME280;10876;49.038;10.608;2023-05-21T10:22:39;98461.47;;;22.64;100.00
21431;BME280;10876;49.038;10.608;2023-05-21T10:25:07;98460.66;;;22.53;100.00
21431;BME280;10876;49.038;10.608;2023-05-21T10:27:34;98453.47;;;22.59;100.00
21431;BME280;10876;49.038;10.608;2023-05-21T10:30:05;98439.09;;;22.85;100.00
21431;BME280;10876;49.038;10.608;2023-05-21T10:32:33;98439.13;;;22.78;100.00
21431;BME280;10876;49.038;10.608;2023-05-21T10:35:01;98452.66;;;22.69;100.00
21431;BME280;10876;49.038;10.608;2023-05-21T10:37:28;98449.50;;;22.67;100.00
21431;BME280;10876;49.038;10.608;2023-05-21T10:39:55;98455.47;;;22.58;100.00
21431;BME280;10876;49.038;10.608;2023-05-21T10:45:36;98443.88;;;23.24;100.00
21431;BME280;10876;49.038;10.608;2023-05-21T10:48:18;98438.28;;;23.28;100.00
21431;BME280;10876;49.038;10.608;2023-05-21T10:51:05;98439.75;;;23.75;100.00
21431;BME280;10876;49.038;10.608;2023-05-21T10:53:47;98417.03;;;24.33;100.00
21431;BME280;10876;49.038;10.608;2023-05-21T10:56:22;98424.06;;;24.59;100.00
21431;BME280;10876;49.038;10.608;2023-05-21T10:59:00;98417.78;;;24.89;100.00
21431;BME280;10876;49.038;10.608;2023-05-21T11:01:35;98421.78;;;25.29;100.00
21431;BME280;10876;49.038;10.608;2023-05-21T11:04:03;98419.50;;;24.76;100.00
21431;BME280;10876;49.038;10.608;2023-05-21T11:06:31;98410.28;;;24.75;100.00
21431;BME280;10876;49.038;10.608;2023-05-21T11:09:10;98366.03;;;24.97;100.00
21431;BME280;10876;49.038;10.608;2023-05-21T11:11:41;98352.88;;;25.62;100.00
21431;BME280;10876;49.038;10.608;2023-05-21T11:14:32;98344.31;;;25.08;100.00
21431;BME280;10876;49.038;10.608;2023-05-21T11:17:03;98349.31;;;24.90;100.00
21431;BME280;10876;49.038;10.608;2023-05-21T11:19:43;98333.06;;;25.15;100.00
21431;BME280;10876;49.038;10.608;2023-05-21T11:22:22;98341.91;;;24.69;100.00
21431;BME280;10876;49.038;10.608;2023-05-21T11:24:50;98363.47;;;24.27;100.00
21431;BME280;10876;49.038;10.608;2023-05-21T11:27:31;98369.91;;;24.20;100.00
21431;BME280;10876;49.038;10.608;2023-05-21T11:29:59;98389.16;;;24.11;100.00
21431;BME280;10876;49.038;10.608;2023-05-21T11:32:30;98403.97;;;24.08;100.00
21431;BME280;10876;49.038;10.608;2023-05-21T11:34:59;98414.34;;;24.11;100.00
21431;BME280;10876;49.038;10.608;2023-05-21T11:37:29;98411.38;;;23.73;100.00
21431;BME280;10876;49.038;10.608;2023-05-21T11:40:14;98397.00;;;23.64;100.00
21431;BME280;10876;49.038;10.608;2023-05-21T11:42:42;98404.56;;;23.74;100.00
21431;BME280;10876;49.038;10.608;2023-05-21T11:45:10;98407.59;;;24.05;100.00
21431;BME280;10876;49.038;10.608;2023-05-21T11:47:39;98407.03;;;24.28;100.00
21431;BME280;10876;49.038;10.608;2023-05-21T11:50:11;98397.97;;;24.13;100.00
21431;BME280;10876;49.038;10.608;2023-05-21T11:52:39;98403.03;;;24.33;100.00
21431;BME280;10876;49.038;10.608;2023-05-21T11:55:06;98371.53;;;24.14;100.00
21431;BME280;10876;49.038;10.608;2023-05-21T11:57:34;98356.59;;;23.79;100.00
21431;BME280;10876;49.038;10.608;2023-05-21T12:00:02;98352.63;;;23.73;100.00
21431;BME280;10876;49.038;10.608;2023-05-21T12:02:43;98353.31;;;23.92;100.00
21431;BME280;10876;49.038;10.608;2023-05-21T12:05:10;98352.63;;;23.73;100.00
21431;BME280;10876;49.038;10.608;2023-05-21T12:07:37;98353.50;;;23.56;100.00
21431;BME280;10876;49.038;10.608;2023-05-21T12:10:05;98347.84;;;23.63;100.00
21431;BME280;10876;49.038;10.608;2023-05-21T12:12:33;98341.88;;;23.61;100.00
21431;BME280;10876;49.038;10.608;2023-05-21T12:15:01;98359.47;;;23.61;100.00
21431;BME280;10876;49.038;10.608;2023-05-21T12:17:29;98367.84;;;23.61;100.00
21431;BME280;10876;49.038;10.608;2023-05-21T12:19:58;98372.66;;;23.57;100.00
21431;BME280;10876;49.038;10.608;2023-05-21T12:22:31;98369.47;;;23.55;100.00
21431;BME280;10876;49.038;10.608;2023-05-21T12:24:58;98366.25;;;23.57;100.00
21431;BME280;10876;49.038;10.608;2023-05-21T12:27:25;98384.53;;;23.83;100.00
21431;BME280;10876;49.038;10.608;2023-05-21T12:29:53;98393.28;;;23.96;100.00
21431;BME280;10876;49.038;10.608;2023-05-21T12:32:20;98376.38;;;24.10;100.00
21431;BME280;10876;49.038;10.608;2023-05-21T12:34:48;98353.31;;;23.92;100.00
21431;BME280;10876;49.038;10.608;2023-05-21T12:37:19;98397.06;;;24.23;100.00
21431;BME280;10876;49.038;10.608;2023-05-21T12:39:49;98386.59;;;24.35;100.00
21431;BME280;10876;49.038;10.608;2023-05-21T12:42:22;98382.59;;;24.36;100.00
21431;BME280;10876;49.038;10.608;2023-05-21T12:44:51;98376.44;;;24.55;100.00
21431;BME280;10876;49.038;10.608;2023-05-21T12:47:21;98362.31;;;24.73;100.00
21431;BME280;10876;49.038;10.608;2023-05-21T12:49:48;98366.97;;;24.83;100.00